createdAt,value
2023-08-26T00:02:49.637Z,26.82
2023-08-26T00:12:52.632Z,26.07
2023-08-26T00:22:54.325Z,27.13
2023-08-26T00:32:56.021Z,27.43
2023-08-26T00:42:58.101Z,27.57
2023-08-26T00:52:59.836Z,27.77
2023-08-26T01:03:01.682Z,27.86
2023-08-26T01:13:12.515Z,26.64
2023-08-26T01:23:21.431Z,26.07
2023-08-26T01:33:27.939Z,27.22
2023-08-26T01:43:31.347Z,27.71
2023-08-26T01:53:34.394Z,27.97
2023-08-26T02:03:36.113Z,26.80
2023-08-26T02:13:38.011Z,26.22
2023-08-26T02:23:39.619Z,27.28
2023-08-26T02:33:41.223Z,27.54
2023-08-26T02:43:42.984Z,27.58
2023-08-26T02:53:44.642Z,27.53
2023-08-26T03:03:46.375Z,27.42
2023-08-26T03:13:50.375Z,27.29
2023-08-26T03:23:53.375Z,27.20
2023-08-26T03:33:57.175Z,27.20
2023-08-26T03:43:59.323Z,27.21
2023-08-26T03:54:00.957Z,27.21
2023-08-26T04:04:03.703Z,27.22
2023-08-26T04:14:06.028Z,26.04
2023-08-26T04:24:08.284Z,25.48
2023-08-26T04:34:09.939Z,26.76
2023-08-26T04:44:13.425Z,27.39
2023-08-26T04:54:15.099Z,27.93
2023-08-26T05:04:16.968Z,26.98
2023-08-26T05:14:18.881Z,26.85
2023-08-26T05:24:20.557Z,30.09
2023-08-26T05:34:22.354Z,31.78
2023-08-26T05:44:24.176Z,31.97
2023-08-26T05:54:26.402Z,30.74
2023-08-26T06:04:28.933Z,29.39
2023-08-26T06:14:31.292Z,28.42
2023-08-26T06:24:33.647Z,28.09
2023-08-26T06:34:35.470Z,28.66
2023-08-26T06:44:38.472Z,31.10
2023-08-26T06:54:40.408Z,37.96
2023-08-26T07:04:45.272Z,43.85
2023-08-26T07:14:47.098Z,48.24
2023-08-26T07:24:48.881Z,51.64
2023-08-26T07:34:53.733Z,53.96
2023-08-26T07:44:55.541Z,55.52
2023-08-26T07:54:57.260Z,57.28
2023-08-26T08:04:59.246Z,58.83
2023-08-26T08:15:01.208Z,59.84
2023-08-26T08:25:04.082Z,60.44
2023-08-26T08:35:06.298Z,61.21
2023-08-26T08:45:09.633Z,62.03
2023-08-26T08:55:12.898Z,62.71
2023-08-26T09:05:15.253Z,63.14
2023-08-26T09:15:17.094Z,63.61
2023-08-26T09:25:18.773Z,64.13
2023-08-26T09:45:42.779Z,65.52
2023-08-26T09:55:45.128Z,64.31
2023-08-26T10:05:48.532Z,61.69
2023-08-26T10:15:53.031Z,58.89
2023-08-26T10:25:55.814Z,56.75
2023-08-26T10:36:12.677Z,54.56
2023-08-26T10:46:15.378Z,50.97
2023-08-26T10:56:22.141Z,45.90
2023-08-26T11:06:24.487Z,42.80
2023-08-26T11:16:27.610Z,41.25
2023-08-26T11:26:29.302Z,39.86
2023-08-26T11:36:31.102Z,39.24
2023-08-26T11:46:32.924Z,38.60
2023-08-26T11:56:35.139Z,38.02
2023-08-26T12:06:36.854Z,37.30
2023-08-26T12:16:38.696Z,37.19
2023-08-26T12:26:40.670Z,37.07
2023-08-26T12:36:45.331Z,37.00
2023-08-26T12:46:47.382Z,36.94
2023-08-26T12:56:49.319Z,36.17
2023-08-26T13:06:50.973Z,35.22
2023-08-26T13:16:53.052Z,34.54
2023-08-26T13:26:55.292Z,34.06
2023-08-26T13:36:56.985Z,33.79
2023-08-26T13:46:58.771Z,33.66
2023-08-26T13:57:02.278Z,33.56
2023-08-26T14:07:04.011Z,33.42
2023-08-26T14:17:05.743Z,33.35
2023-08-26T14:27:07.382Z,33.21
2023-08-26T14:37:09.089Z,32.84
2023-08-26T14:47:10.769Z,32.42
2023-08-26T14:57:12.430Z,32.06
2023-08-26T15:07:15.018Z,31.90
2023-08-26T15:17:16.897Z,31.71
2023-08-26T15:27:19.281Z,31.53
2023-08-26T15:37:20.935Z,31.37
2023-08-26T15:47:22.858Z,31.04
2023-08-26T15:57:24.519Z,30.69
2023-08-26T16:07:26.168Z,30.38
2023-08-26T16:17:27.988Z,30.08
2023-08-26T16:27:29.763Z,29.79
2023-08-26T16:37:31.879Z,29.49
2023-08-26T16:47:33.642Z,29.12
2023-08-26T16:57:35.887Z,28.79
2023-08-26T17:07:37.536Z,28.38
2023-08-26T17:17:39.495Z,27.84
2023-08-26T17:27:41.316Z,29.00
2023-08-26T17:37:43.228Z,29.51
2023-08-26T17:47:45.032Z,27.90
2023-08-26T17:57:46.725Z,28.66
2023-08-26T18:07:48.419Z,30.44
2023-08-26T18:17:50.383Z,29.74
2023-08-26T18:27:52.122Z,27.69
2023-08-26T18:37:53.785Z,26.36
2023-08-26T18:47:55.905Z,27.20
2023-08-26T18:57:57.645Z,28.87
2023-08-26T19:07:59.299Z,28.01
2023-08-26T19:18:01.059Z,25.91
2023-08-26T19:28:03.186Z,26.44
2023-08-26T19:38:06.305Z,27.99
2023-08-26T19:48:10.914Z,27.16
2023-08-26T19:58:13.105Z,25.01
2023-08-26T20:08:14.762Z,25.55
2023-08-26T20:18:16.609Z,27.21
2023-08-26T20:28:18.253Z,26.44
2023-08-26T20:38:19.883Z,24.29
2023-08-26T20:48:21.617Z,24.87
2023-08-26T20:58:23.234Z,26.49
2023-08-26T21:08:26.247Z,27.17
2023-08-26T21:18:30.014Z,26.07
2023-08-26T21:28:31.685Z,23.82
2023-08-26T21:38:33.289Z,24.39
2023-08-26T21:48:35.216Z,26.06
2023-08-26T21:58:36.874Z,26.70
2023-08-26T22:08:38.657Z,25.56
2023-08-26T22:18:40.423Z,25.07
2023-08-26T22:28:45.190Z,26.34
2023-08-26T22:38:46.962Z,26.72
2023-08-26T22:48:48.907Z,25.44
2023-08-26T22:58:50.621Z,23.13
2023-08-26T23:08:54.392Z,23.57
2023-08-26T23:18:56.078Z,25.23
2023-08-26T23:28:57.751Z,25.93
2023-08-26T23:38:59.867Z,26.32
2023-08-26T23:49:01.613Z,25.12
2023-08-26T23:59:04.367Z,24.58
